Time;durP1;ratioP1;P1;durP2;ratioP2;P2;SDS_P1;SDS_P2;PMS_P1;PMS_P2;Temp;Humidity;BMP_temperature;BMP_pressure;BME280_temperature;BME280_humidity;BME280_pressure;Samples;Min_cycle;Max_cycle;Signal;HPM_P1;HPM_P2
2022/05/18 00:01:06;;;;;;;4.25;2.50;;;16.50;66.20;;;;;;4992126;28;20042;-65
2022/05/18 00:03:35;;;;;;;7.32;2.17;;;16.50;67.10;;;;;;4995422;28;20496;-64
2022/05/18 00:06:02;;;;;;;5.20;1.85;;;16.50;66.80;;;;;;5012601;28;20061;-64
2022/05/18 00:08:29;;;;;;;3.88;2.65;;;16.40;66.90;;;;;;5013262;28;20058;-64
2022/05/18 00:10:54;;;;;;;4.78;2.33;;;16.40;67.00;;;;;;5000571;28;20076;-64
2022/05/18 00:13:20;;;;;;;5.82;2.40;;;16.40;67.30;;;;;;4994820;28;20034;-65
2022/05/18 00:15:46;;;;;;;4.32;2.20;;;16.30;67.40;;;;;;4996038;28;20113;-64
2022/05/18 00:18:12;;;;;;;9.90;2.60;;;16.30;67.50;;;;;;4995922;28;20042;-64
2022/05/18 00:20:37;;;;;;;7.15;2.83;;;16.30;68.00;;;;;;4996017;28;20076;-64
2022/05/18 00:23:04;;;;;;;6.93;2.55;;;16.20;67.90;;;;;;5005157;28;20026;-64
2022/05/18 00:25:35;;;;;;;8.40;2.58;;;16.20;68.20;;;;;;5012270;28;20546;-64
2022/05/18 00:28:01;;;;;;;7.85;2.50;;;16.20;67.90;;;;;;4995454;28;20054;-64
2022/05/18 00:30:28;;;;;;;4.82;2.15;;;16.10;67.90;;;;;;5003761;28;20464;-65
2022/05/18 00:32:54;;;;;;;4.70;2.28;;;16.10;67.80;;;;;;5014614;28;20030;-65
2022/05/18 00:35:20;;;;;;;3.63;2.72;;;16.10;67.60;;;;;;5012973;28;20024;-65
2022/05/18 00:37:46;;;;;;;5.00;2.35;;;16.10;67.60;;;;;;5015120;28;20065;-65
2022/05/18 00:40:13;;;;;;;5.10;2.50;;;16.00;67.40;;;;;;5013047;28;20088;-65
2022/05/18 00:42:39;;;;;;;8.65;3.17;;;16.00;67.60;;;;;;4999155;28;20056;-65
2022/05/18 00:45:06;;;;;;;6.85;2.47;;;15.90;68.00;;;;;;5014516;28;20030;-65
2022/05/18 00:47:32;;;;;;;4.22;2.42;;;15.90;67.70;;;;;;5013346;28;20041;-65
2022/05/18 00:50:06;;;;;;;5.55;2.55;;;15.90;67.60;;;;;;4996394;28;20060;-65
2022/05/18 00:52:37;;;;;;;5.38;2.42;;;15.90;67.40;;;;;;4994761;28;20482;-65
2022/05/18 00:55:03;;;;;;;3.90;2.35;;;15.90;67.50;;;;;;5012593;28;20064;-65
2022/05/18 00:57:35;;;;;;;3.83;2.45;;;15.80;67.50;;;;;;5014448;28;20046;-65
2022/05/18 01:00:07;;;;;;;6.22;2.63;;;15.70;67.30;;;;;;5011426;28;20026;-65
2022/05/18 01:02:34;;;;;;;12.13;3.65;;;15.70;67.30;;;;;;5014285;28;20030;-65
2022/05/18 01:05:05;;;;;;;6.00;2.10;;;15.70;67.10;;;;;;5014355;28;20100;-65
2022/05/18 01:07:36;;;;;;;3.55;2.17;;;15.70;67.00;;;;;;4999907;28;20476;-66
2022/05/18 01:10:03;;;;;;;4.65;2.35;;;15.70;66.70;;;;;;5000643;28;20114;-64
2022/05/18 01:12:28;;;;;;;4.32;2.17;;;15.60;66.50;;;;;;5012763;28;20532;-65
2022/05/18 01:14:59;;;;;;;3.60;1.90;;;15.60;66.70;;;;;;5013765;28;20026;-65
2022/05/18 01:17:29;;;;;;;5.32;1.92;;;15.60;66.80;;;;;;4995477;28;20034;-65
2022/05/18 01:20:01;;;;;;;8.55;2.47;;;15.50;66.20;;;;;;4999125;28;20428;-65
2022/05/18 01:22:42;;;;;;;4.47;2.17;;;15.50;66.30;;;;;;5004583;28;20452;-65
2022/05/18 01:25:24;;;;;;;5.18;2.03;;;15.40;65.80;;;;;;4984296;28;20441;-65
2022/05/18 01:27:50;;;;;;;3.10;1.80;;;15.40;65.70;;;;;;4994520;28;20033;-65
2022/05/18 01:30:16;;;;;;;4.72;1.90;;;15.40;65.70;;;;;;4996498;28;20483;-65
2022/05/18 01:32:49;;;;;;;4.93;2.20;;;15.40;65.80;;;;;;5012998;28;20049;-65
2022/05/18 01:35:19;;;;;;;5.55;2.08;;;15.30;65.60;;;;;;4997226;28;20740;-65
2022/05/18 01:37:44;;;;;;;4.30;1.88;;;15.30;65.40;;;;;;4994689;28;20038;-65
2022/05/18 01:40:38;;;;;;;3.78;1.85;;;15.30;65.50;;;;;;4998172;28;20466;-66
2022/05/18 01:43:47;;;;;;;3.83;1.80;;;15.30;65.80;;;;;;4986600;28;20034;-65
2022/05/18 01:46:16;;;;;;;3.75;1.80;;;15.30;65.40;;;;;;4983196;28;20436;-65
2022/05/18 01:48:45;;;;;;;7.53;2.15;;;15.30;65.20;;;;;;5016809;28;20103;-65
2022/05/18 01:51:14;;;;;;;4.80;1.92;;;15.30;64.30;;;;;;5015156;28;20022;-65
2022/05/18 01:53:40;;;;;;;8.52;2.33;;;15.30;64.70;;;;;;5017294;28;20034;-65
2022/05/18 01:56:08;;;;;;;6.85;1.70;;;15.30;64.30;;;;;;5007843;28;20482;-66
2022/05/18 01:58:33;;;;;;;3.33;2.00;;;15.20;64.00;;;;;;4996531;28;20351;-66
2022/05/18 02:01:00;;;;;;;4.28;1.48;;;15.20;63.50;;;;;;4995890;28;20029;-66
2022/05/18 02:03:26;;;;;;;5.60;1.50;;;15.20;63.60;;;;;;5003445;28;20092;-65
2022/05/18 02:05:52;;;;;;;5.82;2.00;;;15.20;62.90;;;;;;4993924;28;20026;-65
2022/05/18 02:08:19;;;;;;;3.15;1.65;;;15.20;63.10;;;;;;4995501;28;20077;-65
2022/05/18 02:10:45;;;;;;;3.38;1.92;;;15.20;62.80;;;;;;5013252;28;20033;-65
2022/05/18 02:13:10;;;;;;;2.65;1.60;;;15.20;62.80;;;;;;5012489;28;20021;-65
2022/05/18 02:15:36;;;;;;;2.78;1.50;;;15.10;62.40;;;;;;5013364;28;20033;-65
2022/05/18 02:18:02;;;;;;;8.85;2.40;;;15.10;62.10;;;;;;5010920;28;20053;-65
2022/05/18 02:20:27;;;;;;;5.18;1.83;;;15.10;62.10;;;;;;4994226;28;20484;-63
2022/05/18 02:22:53;;;;;;;2.22;1.30;;;15.10;61.20;;;;;;4993452;28;20030;-64
2022/05/18 02:25:20;;;;;;;2.85;1.50;;;15.10;61.20;;;;;;5001677;28;20101;-64
2022/05/18 02:27:46;;;;;;;3.63;1.80;;;15.10;61.50;;;;;;4994202;28;20030;-64
2022/05/18 02:30:13;;;;;;;5.15;1.73;;;15.00;61.20;;;;;;4993382;28;20038;-64
2022/05/18 02:32:38;;;;;;;2.55;1.48;;;15.00;61.30;;;;;;4993288;28;20014;-65
2022/05/18 02:35:05;;;;;;;2.25;1.30;;;15.10;61.20;;;;;;5005310;28;20034;-64
2022/05/18 02:37:31;;;;;;;6.57;1.73;;;15.00;61.00;;;;;;5007768;28;20440;-64
2022/05/18 02:39:57;;;;;;;4.75;1.48;;;15.00;61.50;;;;;;4992964;28;20022;-64
2022/05/18 02:42:22;;;;;;;3.80;1.45;;;14.90;60.40;;;;;;4994107;28;20084;-64
2022/05/18 02:44:48;;;;;;;3.70;1.38;;;14.90;60.20;;;;;;4993143;28;20422;-64
2022/05/18 02:47:13;;;;;;;4.72;1.60;;;14.90;60.40;;;;;;5012504;28;20018;-65
2022/05/18 02:49:39;;;;;;;2.13;1.30;;;14.90;60.30;;;;;;5000531;28;20497;-65
2022/05/18 02:52:04;;;;;;;3.00;1.50;;;14.90;60.20;;;;;;5011269;28;20025;-65
2022/05/18 02:57:14;;;;;;;2.25;1.30;;;14.80;60.20;;;;;;4992885;28;20041;-64
2022/05/18 02:59:40;;;;;;;2.92;1.30;;;14.80;59.70;;;;;;4996853;28;20014;-65
2022/05/18 03:02:06;;;;;;;2.35;1.70;;;14.80;59.30;;;;;;5008423;28;20030;-64
2022/05/18 03:04:32;;;;;;;4.40;1.38;;;14.80;59.10;;;;;;5012256;28;20018;-64
2022/05/18 03:06:58;;;;;;;3.75;1.35;;;14.70;58.90;;;;;;5009846;28;20038;-64
2022/05/18 03:09:24;;;;;;;3.22;1.50;;;14.70;58.80;;;;;;5012081;28;20108;-64
2022/05/18 03:11:50;;;;;;;2.00;1.20;;;14.70;58.30;;;;;;5011805;28;20057;-65
2022/05/18 03:14:16;;;;;;;2.17;1.30;;;14.60;58.80;;;;;;4992515;28;20045;-64
2022/05/18 03:16:43;;;;;;;5.28;1.50;;;14.60;58.30;;;;;;4992672;28;20038;-64
2022/05/18 03:19:10;;;;;;;5.45;2.03;;;14.60;58.60;;;;;;5001640;28;20031;-64
2022/05/18 03:24:19;;;;;;;4.15;1.58;;;14.50;58.40;;;;;;5011074;28;20030;-64
2022/05/18 03:26:45;;;;;;;4.35;1.50;;;14.50;58.60;;;;;;5012057;28;20026;-64
2022/05/18 03:29:11;;;;;;;3.17;1.40;;;14.50;58.50;;;;;;5011712;28;20025;-64
2022/05/18 03:31:37;;;;;;;2.55;1.23;;;14.50;58.30;;;;;;5011789;28;20034;-64
2022/05/18 03:34:03;;;;;;;2.75;1.35;;;14.40;57.80;;;;;;4996323;28;20503;-64
2022/05/18 03:36:29;;;;;;;5.10;1.75;;;14.40;58.00;;;;;;4991505;28;20061;-64
2022/05/18 03:38:55;;;;;;;4.90;1.73;;;14.50;57.90;;;;;;4991499;28;20030;-64
2022/05/18 03:41:21;;;;;;;6.18;1.70;;;14.50;58.40;;;;;;4990997;28;20509;-64
2022/05/18 03:43:46;;;;;;;3.60;1.20;;;14.40;58.50;;;;;;4992488;28;20034;-64
2022/05/18 03:46:12;;;;;;;2.45;1.50;;;14.50;58.30;;;;;;4992074;28;20026;-64
2022/05/18 03:48:38;;;;;;;4.15;1.30;;;14.40;57.70;;;;;;4999754;28;20382;-64
2022/05/18 03:51:06;;;;;;;3.60;1.38;;;14.40;58.00;;;;;;5010873;28;20148;-64
2022/05/18 03:53:33;;;;;;;4.00;1.40;;;14.40;58.40;;;;;;5008533;28;20100;-64
2022/05/18 03:55:59;;;;;;;2.53;1.20;;;14.40;57.90;;;;;;5011558;28;20064;-64
2022/05/18 03:58:25;;;;;;;1.83;1.38;;;14.40;57.90;;;;;;5002736;28;20034;-64
2022/05/18 04:00:53;;;;;;;2.28;1.42;;;14.50;58.40;;;;;;4994568;28;20041;-64
2022/05/18 04:03:21;;;;;;;4.30;1.25;;;14.50;58.00;;;;;;5011308;28;20033;-64
2022/05/18 04:05:50;;;;;;;3.90;1.30;;;14.40;57.70;;;;;;5011836;28;20465;-64
2022/05/18 04:08:16;;;;;;;2.78;1.35;;;14.50;57.60;;;;;;4992324;28;20434;-65
2022/05/18 04:10:42;;;;;;;3.08;1.20;;;14.40;57.40;;;;;;4992121;28;20026;-64
2022/05/18 04:13:12;;;;;;;2.72;1.30;;;14.50;57.90;;;;;;4991955;28;20038;-65
2022/05/18 04:15:38;;;;;;;5.43;1.70;;;14.50;58.00;;;;;;4996285;28;20025;-65
2022/05/18 04:18:03;;;;;;;2.22;1.35;;;14.50;57.90;;;;;;5009670;28;20640;-65
2022/05/18 04:20:29;;;;;;;4.10;1.60;;;14.50;58.10;;;;;;5003035;28;20022;-65
2022/05/18 04:22:55;;;;;;;3.63;1.48;;;14.60;58.30;;;;;;4991684;28;20030;-65
2022/05/18 04:25:25;;;;;;;2.40;1.38;;;14.60;58.00;;;;;;4992589;28;20077;-65
2022/05/18 04:27:50;;;;;;;3.75;1.25;;;14.60;57.60;;;;;;4994082;28;20359;-65
2022/05/18 04:30:20;;;;;;;2.20;1.40;;;14.70;58.10;;;;;;5011241;28;20026;-65
2022/05/18 04:32:46;;;;;;;2.30;1.40;;;14.70;57.60;;;;;;5011664;28;20366;-65
2022/05/18 04:35:15;;;;;;;2.90;1.58;;;14.80;57.90;;;;;;5003728;28;20494;-65
2022/05/18 04:37:41;;;;;;;2.92;1.27;;;14.80;57.80;;;;;;4992186;28;20049;-65
2022/05/18 04:40:08;;;;;;;2.97;1.30;;;14.80;57.60;;;;;;4991786;28;20026;-65
2022/05/18 04:42:34;;;;;;;8.25;1.60;;;14.80;57.10;;;;;;5007494;28;20030;-65
2022/05/18 04:44:59;;;;;;;2.58;1.25;;;14.90;57.50;;;;;;5010998;28;20552;-65
2022/05/18 04:47:25;;;;;;;3.22;1.45;;;14.90;57.60;;;;;;5011265;28;20136;-65
2022/05/18 04:49:52;;;;;;;1.67;1.30;;;14.90;58.00;;;;;;5009909;28;20113;-65
2022/05/18 04:52:18;;;;;;;4.57;1.50;;;15.00;57.60;;;;;;4995790;28;20322;-65
2022/05/18 04:54:44;;;;;;;3.03;1.42;;;15.00;57.40;;;;;;4994892;28;20109;-65
2022/05/18 04:57:09;;;;;;;3.67;1.98;;;15.10;57.50;;;;;;5008370;28;20175;-65
2022/05/18 04:59:35;;;;;;;4.05;1.60;;;15.10;58.10;;;;;;4993819;28;20080;-65
2022/05/18 05:02:02;;;;;;;6.00;1.40;;;15.10;57.70;;;;;;4993186;28;20464;-65
2022/05/18 05:04:28;;;;;;;4.32;2.17;;;15.20;57.50;;;;;;5003251;28;20061;-65
2022/05/18 05:06:53;;;;;;;2.75;1.30;;;15.20;57.70;;;;;;4997936;28;20092;-65
2022/05/18 05:09:22;;;;;;;2.38;1.35;;;15.30;57.80;;;;;;4994710;28;20046;-65
2022/05/18 05:11:48;;;;;;;4.38;1.60;;;15.30;58.10;;;;;;5012875;28;20080;-65
2022/05/18 05:14:13;;;;;;;3.00;1.40;;;15.40;57.30;;;;;;5013270;28;20038;-65
2022/05/18 05:16:38;;;;;;;4.20;1.48;;;15.40;57.00;;;;;;5001099;28;20539;-64
2022/05/18 05:19:05;;;;;;;3.30;1.58;;;15.50;58.00;;;;;;5005850;28;20022;-65
2022/05/18 05:21:30;;;;;;;2.85;1.50;;;15.50;56.90;;;;;;5014376;28;20053;-65
2022/05/18 05:23:56;;;;;;;4.03;1.40;;;15.60;57.30;;;;;;5004638;28;20473;-64
2022/05/18 05:26:21;;;;;;;3.35;1.45;;;15.60;57.70;;;;;;5013955;28;20022;-64
2022/05/18 05:28:47;;;;;;;3.60;1.35;;;15.70;57.90;;;;;;5013860;28;20551;-64
2022/05/18 05:31:12;;;;;;;5.25;2.00;;;15.80;58.30;;;;;;5013366;28;20025;-65
2022/05/18 05:33:40;;;;;;;4.22;1.85;;;15.90;58.30;;;;;;5007906;28;20493;-68
2022/05/18 05:36:07;;;;;;;2.55;1.40;;;16.00;58.80;;;;;;5004504;28;20600;-68
2022/05/18 05:38:32;;;;;;;2.42;1.60;;;16.10;58.90;;;;;;4999734;28;20081;-70
2022/05/18 05:41:00;;;;;;;3.50;1.40;;;16.10;58.00;;;;;;5012840;28;20425;-69
2022/05/18 05:43:26;;;;;;;4.10;1.70;;;16.20;58.80;;;;;;4993805;28;20041;-67
2022/05/18 05:46:07;;;;;;;3.50;1.77;;;16.30;58.30;;;;;;4992524;28;20038;-65
2022/05/18 05:48:34;;;;;;;6.40;1.70;;;16.30;57.50;;;;;;5007724;28;20390;-66
2022/05/18 05:51:00;;;;;;;5.80;1.60;;;16.30;57.10;;;;;;5012685;28;20060;-66
2022/05/18 05:53:27;;;;;;;2.17;1.20;;;16.30;57.20;;;;;;5009635;28;20540;-66
2022/05/18 05:55:53;;;;;;;3.88;2.15;;;16.30;58.00;;;;;;5009010;28;20512;-66
2022/05/18 05:58:20;;;;;;;4.03;1.65;;;16.40;58.10;;;;;;4998403;28;20446;-66
2022/05/18 06:00:46;;;;;;;3.08;1.50;;;16.40;57.50;;;;;;4992995;28;20076;-66
2022/05/18 06:03:14;;;;;;;3.10;1.48;;;16.40;57.80;;;;;;5004322;28;20116;-66
2022/05/18 06:05:40;;;;;;;2.72;1.50;;;16.50;57.80;;;;;;5010880;28;20042;-66
2022/05/18 06:08:06;;;;;;;2.55;1.55;;;16.50;57.50;;;;;;5012913;28;20406;-66
2022/05/18 06:10:32;;;;;;;2.90;1.60;;;16.50;58.20;;;;;;5010701;28;20033;-65
2022/05/18 06:12:57;;;;;;;3.97;1.48;;;16.60;58.70;;;;;;4996072;28;20026;-66
2022/05/18 06:15:23;;;;;;;3.85;1.40;;;16.60;58.10;;;;;;5006663;28;20034;-66
2022/05/18 06:17:48;;;;;;;5.32;1.70;;;16.60;58.40;;;;;;5013051;28;20030;-65
2022/05/18 06:20:14;;;;;;;3.17;1.90;;;16.70;59.60;;;;;;5012995;28;20026;-67
2022/05/18 06:22:39;;;;;;;3.63;1.90;;;16.70;60.80;;;;;;5008059;28;20134;-64
2022/05/18 06:25:05;;;;;;;5.22;2.05;;;16.80;58.80;;;;;;4993977;28;20026;-64
2022/05/18 06:27:31;;;;;;;5.78;1.60;;;16.80;59.00;;;;;;4993142;28;20065;-65
2022/05/18 06:29:56;;;;;;;7.63;2.67;;;16.80;58.80;;;;;;5003484;28;20069;-64
2022/05/18 06:32:22;;;;;;;6.53;1.70;;;16.90;58.70;;;;;;5012961;28;20025;-64
2022/05/18 06:34:48;;;;;;;3.70;1.63;;;16.90;59.30;;;;;;5011810;28;20025;-66
2022/05/18 06:37:14;;;;;;;5.93;2.00;;;17.00;58.90;;;;;;5012497;28;20034;-66
2022/05/18 06:39:40;;;;;;;3.97;1.83;;;17.00;58.40;;;;;;5011781;28;20041;-66
2022/05/18 06:42:06;;;;;;;3.92;1.80;;;17.10;58.90;;;;;;5013015;28;20104;-67
2022/05/18 06:44:32;;;;;;;3.83;1.80;;;17.10;59.10;;;;;;4999826;28;20542;-66
2022/05/18 06:46:59;;;;;;;5.40;2.08;;;17.20;59.70;;;;;;5009538;28;20042;-66
2022/05/18 06:49:26;;;;;;;9.35;2.30;;;17.20;59.20;;;;;;5015572;28;20466;-65
2022/05/18 06:51:52;;;;;;;2.90;1.60;;;17.20;58.30;;;;;;5025817;28;20420;-66
2022/05/18 06:54:18;;;;;;;5.50;2.00;;;17.30;58.70;;;;;;5010926;28;20073;-66
2022/05/18 06:56:44;;;;;;;3.45;1.70;;;17.30;58.50;;;;;;5009216;28;20069;-66
2022/05/18 06:59:12;;;;;;;3.45;2.10;;;17.40;59.20;;;;;;5010040;28;20029;-66
2022/05/18 07:01:39;;;;;;;5.90;1.83;;;17.40;59.60;;;;;;5011614;28;20037;-68
2022/05/18 07:04:05;;;;;;;4.05;1.92;;;17.50;59.40;;;;;;5002344;28;20018;-65
2022/05/18 07:06:34;;;;;;;4.40;1.98;;;17.60;59.90;;;;;;5013910;28;20036;-64
2022/05/18 07:09:00;;;;;;;4.63;2.40;;;17.70;59.60;;;;;;5019861;28;20042;-65
2022/05/18 07:11:26;;;;;;;4.47;2.13;;;17.70;59.10;;;;;;5009567;28;20037;-65
2022/05/18 07:13:54;;;;;;;3.35;1.95;;;17.80;59.80;;;;;;5006957;28;20130;-65
2022/05/18 07:16:22;;;;;;;2.55;1.60;;;17.80;59.70;;;;;;4997728;28;20038;-65
2022/05/18 07:18:48;;;;;;;4.80;2.20;;;17.90;58.80;;;;;;5015233;28;20033;-65
2022/05/18 07:21:14;;;;;;;4.70;2.15;;;17.90;59.10;;;;;;5029577;28;20044;-65
2022/05/18 07:23:40;;;;;;;5.10;2.25;;;17.90;58.90;;;;;;5027409;28;20074;-64
2022/05/18 07:26:06;;;;;;;3.25;1.95;;;18.00;59.00;;;;;;5017837;28;20120;-64
2022/05/18 07:28:33;;;;;;;5.18;2.08;;;18.10;59.50;;;;;;5017162;28;20400;-66
2022/05/18 07:30:58;;;;;;;3.05;1.80;;;18.10;58.80;;;;;;5005753;28;20031;-64
2022/05/18 07:33:26;;;;;;;3.30;1.95;;;18.20;59.10;;;;;;5022235;28;20055;-64
2022/05/18 07:35:53;;;;;;;5.10;2.35;;;18.20;59.00;;;;;;5006473;28;20038;-65
2022/05/18 07:38:21;;;;;;;5.95;2.42;;;18.20;59.00;;;;;;5017163;28;20033;-65
2022/05/18 07:40:48;;;;;;;7.05;2.45;;;18.20;59.20;;;;;;5013022;28;20034;-64
2022/05/18 07:43:14;;;;;;;4.03;2.35;;;18.30;59.40;;;;;;5031291;28;20030;-64
2022/05/18 07:45:40;;;;;;;5.35;2.40;;;18.30;59.50;;;;;;5011877;28;20463;-64
2022/05/18 07:48:06;;;;;;;3.35;2.15;;;18.40;59.30;;;;;;5003408;28;20041;-64
2022/05/18 07:50:31;;;;;;;7.78;2.83;;;18.50;59.50;;;;;;5005605;28;20049;-64
2022/05/18 07:52:59;;;;;;;3.40;2.03;;;18.50;59.80;;;;;;5010239;28;20038;-65
2022/05/18 07:55:25;;;;;;;3.83;2.30;;;18.50;60.10;;;;;;5019078;28;20053;-65
2022/05/18 07:57:51;;;;;;;3.85;2.33;;;18.60;60.00;;;;;;5012617;28;20073;-65
2022/05/18 08:00:17;;;;;;;3.10;2.10;;;18.70;60.20;;;;;;5017840;28;20526;-65
2022/05/18 08:02:43;;;;;;;6.22;2.85;;;18.80;61.10;;;;;;4999946;28;20113;-65
2022/05/18 08:05:09;;;;;;;3.47;2.72;;;18.80;60.60;;;;;;5001222;28;20117;-68
2022/05/18 08:07:34;;;;;;;4.28;2.65;;;18.90;60.10;;;;;;5009622;28;20432;-64
2022/05/18 08:15:31;;;;;;;9.68;2.47;;;18.90;60.00;;;;;;4995582;28;20034;-63
2022/05/18 08:17:56;;;;;;;9.50;2.65;;;18.90;60.10;;;;;;4991536;28;20069;-63
2022/05/18 08:20:23;;;;;;;4.10;2.63;;;19.00;60.50;;;;;;4991948;28;20026;-63
2022/05/18 08:22:48;;;;;;;7.13;2.53;;;19.10;60.60;;;;;;5000144;28;20030;-63
2022/05/18 08:25:14;;;;;;;6.15;2.95;;;19.20;60.70;;;;;;5012304;28;20538;-64
2022/05/18 08:27:45;;;;;;;4.15;2.60;;;19.30;61.40;;;;;;5027981;28;20052;-64
2022/05/18 08:30:14;;;;;;;6.95;3.13;;;19.40;61.50;;;;;;5032208;28;20036;-65
2022/05/18 08:32:40;;;;;;;4.75;2.63;;;19.40;60.90;;;;;;5003197;28;20442;-64
2022/05/18 08:35:07;;;;;;;4.22;2.80;;;19.50;59.90;;;;;;5004265;28;20049;-64
2022/05/18 08:37:44;;;;;;;3.95;2.13;;;19.50;60.40;;;;;;5005971;28;20065;-64
2022/05/18 08:40:27;;;;;;;4.53;2.70;;;19.60;60.90;;;;;;4996179;28;20050;-64
2022/05/18 08:42:52;;;;;;;4.45;2.50;;;19.70;60.30;;;;;;5010761;28;20033;-64
2022/05/18 08:45:18;;;;;;;7.35;3.35;;;19.70;60.10;;;;;;4995484;28;20113;-64
2022/05/18 08:47:55;;;;;;;6.05;2.28;;;19.70;60.00;;;;;;5003259;28;20033;-63
2022/05/18 08:50:21;;;;;;;7.60;2.78;;;19.80;60.80;;;;;;5009447;28;20040;-63
2022/05/18 08:53:04;;;;;;;4.85;3.38;;;19.90;60.70;;;;;;5024027;28;20034;-63
2022/05/18 08:56:11;;;;;;;4.43;2.65;;;20.00;61.40;;;;;;4999971;28;20034;-63
2022/05/18 08:58:45;;;;;;;5.38;2.85;;;20.10;60.60;;;;;;5009229;28;20038;-63
2022/05/18 09:01:13;;;;;;;5.15;2.60;;;20.10;60.60;;;;;;5015833;28;20037;-64
2022/05/18 09:03:47;;;;;;;6.57;2.50;;;20.20;61.50;;;;;;4994001;28;20035;-64
2022/05/18 09:06:28;;;;;;;6.75;2.58;;;20.30;60.80;;;;;;4994919;28;20037;-64
2022/05/18 09:11:59;;;;;;;7.28;2.90;;;20.40;60.80;;;;;;4994903;28;20105;-65
2022/05/18 09:14:27;;;;;;;6.07;3.10;;;20.40;61.10;;;;;;4995419;28;20502;-65
2022/05/18 09:17:20;;;;;;;3.95;2.67;;;20.40;61.10;;;;;;4994660;28;20054;-65
2022/05/18 09:20:03;;;;;;;6.10;3.17;;;20.50;61.20;;;;;;4994346;28;20026;-65
2022/05/18 09:22:53;;;;;;;7.72;3.15;;;20.60;61.50;;;;;;4994825;28;20065;-65
2022/05/18 09:25:54;;;;;;;7.78;3.17;;;20.60;61.60;;;;;;4994465;28;20030;-65
2022/05/18 09:28:50;;;;;;;5.95;3.65;;;20.70;61.90;;;;;;4994738;28;20073;-64
2022/05/18 09:31:44;;;;;;;13.30;3.67;;;20.80;61.50;;;;;;5010544;28;20034;-64
2022/05/18 09:34:23;;;;;;;11.00;3.60;;;20.90;62.20;;;;;;5012894;28;20037;-64
2022/05/18 09:37:40;;;;;;;6.18;3.25;;;21.00;62.20;;;;;;5014216;28;20128;-64
2022/05/18 09:40:16;;;;;;;4.97;2.90;;;21.10;62.30;;;;;;5008971;28;20068;-64
2022/05/18 09:42:49;;;;;;;11.13;3.72;;;21.20;62.10;;;;;;5013665;28;20034;-64
2022/05/18 09:45:18;;;;;;;6.25;3.20;;;21.20;61.60;;;;;;5014196;28;20041;-64
2022/05/18 09:47:53;;;;;;;5.10;3.40;;;21.30;62.20;;;;;;5000730;28;20038;-64
2022/05/18 09:50:19;;;;;;;10.57;3.58;;;21.40;62.70;;;;;;4994377;28;20027;-64
2022/05/18 09:52:46;;;;;;;4.75;3.35;;;21.50;62.50;;;;;;4993991;28;20028;-64
2022/05/18 09:55:16;;;;;;;6.38;3.30;;;21.60;62.60;;;;;;4993815;28;20485;-64
2022/05/18 09:58:03;;;;;;;6.07;3.65;;;21.70;62.40;;;;;;4994149;28;20061;-64
2022/05/18 10:00:32;;;;;;;5.43;3.70;;;21.70;62.60;;;;;;4993916;28;20022;-64
2022/05/18 10:08:57;;;;;;;6.70;4.03;;;22.00;62.80;;;;;;4993797;28;20089;-64
2022/05/18 10:11:34;;;;;;;7.50;3.60;;;22.00;63.00;;;;;;4994132;28;20034;-64
2022/05/18 10:14:24;;;;;;;4.90;3.40;;;22.10;63.40;;;;;;4993240;28;20038;-63
2022/05/18 10:17:05;;;;;;;7.47;4.63;;;22.20;63.20;;;;;;4993757;28;20065;-64
2022/05/18 10:19:45;;;;;;;4.68;3.45;;;22.30;63.40;;;;;;5008670;28;20026;-64
2022/05/18 10:22:18;;;;;;;9.02;4.20;;;22.30;63.40;;;;;;5010118;28;20030;-64
2022/05/18 10:25:12;;;;;;;6.10;4.05;;;22.40;63.10;;;;;;5013138;28;20489;-64
2022/05/18 10:27:44;;;;;;;7.90;3.58;;;22.50;63.00;;;;;;5013425;28;20062;-64
2022/05/18 10:30:25;;;;;;;12.30;4.72;;;22.50;62.90;;;;;;5012724;28;20037;-64
2022/05/18 10:32:55;;;;;;;6.70;3.60;;;22.60;62.60;;;;;;5006354;28;20026;-64
2022/05/18 10:35:48;;;;;;;8.70;4.05;;;22.60;62.60;;;;;;4993398;28;20030;-64
2022/05/18 10:38:22;;;;;;;6.63;3.50;;;22.80;63.20;;;;;;5000407;28;20069;-64
2022/05/18 10:40:48;;;;;;;7.13;3.65;;;22.80;62.90;;;;;;5012886;28;20033;-64
2022/05/18 10:43:34;;;;;;;6.93;3.90;;;22.90;63.00;;;;;;5012730;28;20021;-64
2022/05/18 10:46:28;;;;;;;8.32;4.00;;;23.00;62.70;;;;;;5012018;28;20108;-64
2022/05/18 10:48:58;;;;;;;6.00;3.80;;;23.00;62.20;;;;;;5012823;28;20091;-65
2022/05/18 10:51:39;;;;;;;9.68;4.85;;;23.00;62.20;;;;;;5012446;28;20022;-64
2022/05/18 10:54:26;;;;;;;7.68;4.03;;;23.10;62.50;;;;;;5012115;28;20038;-64
2022/05/18 10:57:07;;;;;;;5.90;3.97;;;23.20;62.70;;;;;;5000962;28;20493;-64
2022/05/18 10:59:58;;;;;;;7.00;4.57;;;23.20;63.10;;;;;;5010592;28;20033;-64
2022/05/18 11:02:59;;;;;;;7.90;4.30;;;23.30;62.70;;;;;;5012570;28;20378;-64
2022/05/18 11:05:37;;;;;;;5.25;4.20;;;23.30;62.80;;;;;;5012851;28;20026;-64
2022/05/18 11:08:07;;;;;;;6.95;4.70;;;23.40;62.50;;;;;;5011988;28;20041;-64
2022/05/18 11:10:45;;;;;;;7.07;4.60;;;23.50;62.20;;;;;;5012595;28;20109;-64
2022/05/18 11:13:20;;;;;;;6.65;4.07;;;23.50;62.90;;;;;;4995492;28;20072;-64
2022/05/18 11:16:03;;;;;;;6.35;3.85;;;23.60;62.10;;;;;;4992744;28;20038;-65
2022/05/18 11:18:57;;;;;;;5.97;3.85;;;23.60;61.60;;;;;;4992503;28;20035;-64
2022/05/18 11:21:48;;;;;;;7.53;3.78;;;23.70;61.40;;;;;;4992766;28;20034;-64
2022/05/18 11:24:23;;;;;;;4.50;3.35;;;23.80;61.00;;;;;;4992180;28;20045;-63
2022/05/18 11:27:00;;;;;;;5.75;3.47;;;23.90;60.30;;;;;;4992516;28;20033;-63
2022/05/18 11:29:38;;;;;;;5.85;3.60;;;24.00;60.10;;;;;;5003061;28;20084;-63
2022/05/18 11:32:21;;;;;;;5.70;3.30;;;24.00;59.60;;;;;;5012078;28;20033;-63
2022/05/18 11:34:59;;;;;;;4.82;3.65;;;24.10;59.70;;;;;;5010721;28;20026;-63
2022/05/18 11:37:58;;;;;;;5.85;3.60;;;24.20;59.40;;;;;;5011731;28;20038;-63
2022/05/18 11:40:31;;;;;;;6.70;3.80;;;24.20;59.80;;;;;;5011928;28;20048;-63
2022/05/18 11:46:06;;;;;;;6.13;3.78;;;24.20;58.70;;;;;;4999698;28;20121;-63
2022/05/18 11:48:51;;;;;;;7.70;3.40;;;24.20;58.80;;;;;;5019366;28;20064;-63
2022/05/18 11:51:35;;;;;;;8.30;4.20;;;24.30;59.00;;;;;;5011872;28;20049;-64
2022/05/18 11:54:17;;;;;;;8.98;4.15;;;24.30;59.70;;;;;;5009648;28;20033;-63
2022/05/18 11:57:13;;;;;;;8.65;4.10;;;24.30;59.50;;;;;;4999504;28;20457;-64
2022/05/18 12:00:07;;;;;;;8.85;4.28;;;24.30;59.40;;;;;;5024103;28;20050;-65
2022/05/18 12:03:08;;;;;;;5.60;3.95;;;24.40;59.70;;;;;;5010251;28;20418;-65
2022/05/18 12:05:58;;;;;;;5.85;3.33;;;24.40;59.50;;;;;;5008945;28;20157;-64
2022/05/18 12:09:01;;;;;;;9.75;4.00;;;24.50;59.30;;;;;;5027349;28;20048;-65
2022/05/18 12:12:16;;;;;;;6.72;4.03;;;24.50;59.30;;;;;;5005581;28;20041;-64
2022/05/18 12:14:55;;;;;;;12.73;4.28;;;24.60;59.50;;;;;;4991338;28;20046;-65
2022/05/18 12:17:31;;;;;;;8.18;3.45;;;24.60;59.00;;;;;;5016255;28;20125;-65
2022/05/18 12:20:09;;;;;;;5.88;3.35;;;24.70;58.30;;;;;;5011320;28;20096;-65
2022/05/18 12:22:39;;;;;;;12.70;3.83;;;24.70;58.40;;;;;;5020794;28;20029;-65
2022/05/18 12:25:07;;;;;;;6.38;3.83;;;24.80;57.90;;;;;;5007102;28;20030;-65
2022/05/18 12:27:33;;;;;;;5.25;3.08;;;24.90;58.00;;;;;;5008849;28;20032;-65
2022/05/18 12:30:03;;;;;;;12.00;3.95;;;24.90;57.60;;;;;;5009295;28;20397;-65
2022/05/18 12:32:29;;;;;;;6.05;3.30;;;25.00;57.70;;;;;;5023161;28;20521;-65
2022/05/18 12:35:22;;;;;;;5.85;3.35;;;25.10;57.80;;;;;;5005832;28;20084;-65
2022/05/18 12:38:01;;;;;;;6.57;3.75;;;25.20;57.20;;;;;;5005432;28;20041;-65
2022/05/18 12:40:54;;;;;;;7.40;4.43;;;25.30;57.20;;;;;;5007084;28;20033;-65
2022/05/18 12:43:49;;;;;;;5.47;3.33;;;25.30;57.00;;;;;;5013715;28;20052;-64
2022/05/18 12:46:14;;;;;;;4.63;3.22;;;25.40;57.20;;;;;;5012016;28;20532;-65
2022/05/18 12:48:53;;;;;;;4.78;3.17;;;25.50;57.00;;;;;;5018021;28;20177;-65
2022/05/18 12:51:29;;;;;;;5.80;3.25;;;25.50;57.00;;;;;;4995344;28;20021;-65
2022/05/18 12:54:23;;;;;;;6.30;3.85;;;25.60;56.50;;;;;;5003137;28;20030;-65
2022/05/18 12:57:12;;;;;;;4.53;3.35;;;25.60;56.60;;;;;;5022984;28;20103;-65
2022/05/18 12:59:57;;;;;;;5.15;3.72;;;25.70;56.00;;;;;;5008145;28;20547;-64
2022/05/18 13:02:37;;;;;;;4.90;3.30;;;25.70;56.00;;;;;;5021797;28;20105;-65
2022/05/18 13:05:31;;;;;;;6.57;3.58;;;25.80;56.30;;;;;;5016283;28;20099;-65
2022/05/18 13:08:11;;;;;;;7.10;3.72;;;25.90;56.10;;;;;;5024926;28;20038;-65
2022/05/18 13:10:38;;;;;;;5.35;3.67;;;26.00;56.00;;;;;;5021989;28;20382;-64
2022/05/18 13:13:19;;;;;;;8.90;4.10;;;26.00;55.80;;;;;;4995953;28;20080;-65
2022/05/18 13:15:55;;;;;;;12.77;4.00;;;26.10;55.90;;;;;;5019132;28;20394;-64
2022/05/18 13:18:35;;;;;;;6.78;3.35;;;26.20;55.90;;;;;;5004599;28;20034;-65
2022/05/18 13:21:17;;;;;;;7.43;3.97;;;26.20;56.00;;;;;;4994936;28;20391;-65
2022/05/18 13:23:53;;;;;;;7.60;3.83;;;26.30;56.10;;;;;;5018556;28;20034;-64
2022/05/18 13:26:43;;;;;;;5.38;3.85;;;26.40;56.10;;;;;;5014478;28;20422;-63
2022/05/18 13:29:17;;;;;;;5.63;4.10;;;26.50;55.80;;;;;;5006023;28;20034;-63
2022/05/18 13:31:48;;;;;;;7.57;4.25;;;26.60;55.30;;;;;;4994692;28;20432;-63